Time;durP1;ratioP1;P1;durP2;ratioP2;P2;SDS_P1;SDS_P2;PMS_P1;PMS_P2;Temp;Humidity;BMP_temperature;BMP_pressure;BME280_temperature;BME280_humidity;BME280_pressure;Samples;Min_cycle;Max_cycle;Signal;HPM_P1;HPM_P2
2024/02/12 00:02:03;;;;;;;3.65;1.20;;;7.90;99.90;;;;;;4990345;28;20033;-62
2024/02/12 00:04:29;;;;;;;5.50;1.27;;;7.90;99.90;;;;;;4991453;28;20084;-62
2024/02/12 00:06:57;;;;;;;4.20;1.40;;;7.90;99.90;;;;;;4992172;28;20440;-61
2024/02/12 00:09:24;;;;;;;2.25;1.13;;;7.90;99.90;;;;;;4991083;28;20062;-62
2024/02/12 00:11:50;;;;;;;6.28;1.67;;;7.90;99.90;;;;;;4991784;28;20089;-62
2024/02/12 00:14:22;;;;;;;4.35;1.33;;;7.90;99.90;;;;;;4988877;28;20080;-62
2024/02/12 00:16:48;;;;;;;5.07;1.20;;;7.90;99.90;;;;;;4986815;28;20114;-62
2024/02/12 00:19:14;;;;;;;4.18;1.45;;;7.90;99.90;;;;;;4989479;28;20113;-62
2024/02/12 00:21:42;;;;;;;3.97;1.73;;;8.00;99.90;;;;;;4988147;28;20484;-62
2024/02/12 00:24:08;;;;;;;7.90;1.23;;;7.90;99.90;;;;;;4985255;28;20580;-62
2024/02/12 00:26:33;;;;;;;5.07;1.55;;;8.00;99.90;;;;;;4983650;28;20030;-60
2024/02/12 00:28:59;;;;;;;3.70;1.17;;;8.00;99.90;;;;;;4983077;28;20038;-62
2024/02/12 00:31:28;;;;;;;4.45;1.05;;;8.00;99.90;;;;;;4985055;28;20030;-62
2024/02/12 00:33:54;;;;;;;2.45;1.17;;;8.00;99.90;;;;;;4983344;28;20109;-62
2024/02/12 00:36:20;;;;;;;2.13;1.10;;;8.00;99.90;;;;;;4984058;28;20665;-62
2024/02/12 00:38:46;;;;;;;4.53;2.03;;;7.90;99.90;;;;;;4985318;28;20026;-62
2024/02/12 00:41:20;;;;;;;5.10;1.90;;;7.90;99.90;;;;;;4981326;28;20644;-61
2024/02/12 00:43:47;;;;;;;3.60;1.10;;;7.90;99.90;;;;;;4990716;28;20022;-62
2024/02/12 00:46:15;;;;;;;3.47;1.20;;;7.90;99.90;;;;;;4991157;28;20027;-62
2024/02/12 00:48:42;;;;;;;7.63;2.72;;;7.90;99.90;;;;;;4989264;28;20050;-61
2024/02/12 00:51:11;;;;;;;4.50;1.38;;;7.90;99.90;;;;;;4991576;28;20038;-61
2024/02/12 00:53:40;;;;;;;4.45;1.17;;;7.80;99.90;;;;;;4984863;28;20029;-62
2024/02/12 00:56:06;;;;;;;5.38;1.27;;;7.80;99.90;;;;;;4994915;28;20030;-62
2024/02/12 00:58:33;;;;;;;9.88;1.90;;;7.80;99.90;;;;;;4990403;28;20041;-62
2024/02/12 01:00:59;;;;;;;5.63;1.70;;;7.90;99.90;;;;;;4990678;28;20511;-62
2024/02/12 01:03:26;;;;;;;2.85;1.27;;;7.90;99.90;;;;;;4991249;28;21273;-62
2024/02/12 01:05:53;;;;;;;9.43;1.95;;;7.90;99.90;;;;;;4990824;28;20022;-61
2024/02/12 01:08:19;;;;;;;4.25;1.67;;;7.90;99.90;;;;;;4989458;28;20049;-62
2024/02/12 01:10:45;;;;;;;6.35;1.52;;;7.90;99.90;;;;;;4991149;28;20030;-62
2024/02/12 01:13:11;;;;;;;4.93;1.35;;;7.90;99.90;;;;;;4986230;28;20022;-61
2024/02/12 01:15:36;;;;;;;7.32;2.40;;;8.00;99.90;;;;;;4989213;28;20026;-60
2024/02/12 01:18:02;;;;;;;9.18;2.97;;;8.00;99.90;;;;;;4986407;28;20026;-61
2024/02/12 01:20:28;;;;;;;9.60;2.42;;;8.00;99.90;;;;;;4988839;28;20511;-61
2024/02/12 01:22:55;;;;;;;7.25;2.92;;;8.00;99.90;;;;;;5015462;23;20033;-82
2024/02/12 01:25:20;;;;;;;6.43;2.60;;;8.00;99.90;;;;;;5047030;28;20021;-83
2024/02/12 01:27:46;;;;;;;5.82;2.00;;;8.00;99.90;;;;;;5035418;28;20036;-83
2024/02/12 01:30:13;;;;;;;9.50;2.40;;;8.00;99.90;;;;;;5017704;28;20502;-82
2024/02/12 01:32:39;;;;;;;4.07;2.65;;;8.00;99.90;;;;;;5041813;23;20045;-57
2024/02/12 01:35:05;;;;;;;6.78;2.88;;;8.00;99.90;;;;;;5031082;28;20017;-58
2024/02/12 01:37:32;;;;;;;4.38;2.33;;;8.00;99.90;;;;;;5030787;28;20040;-58
2024/02/12 01:39:58;;;;;;;3.88;2.50;;;8.00;99.90;;;;;;5030938;28;20109;-58
2024/02/12 01:42:24;;;;;;;12.98;3.28;;;8.00;99.90;;;;;;5005211;28;20029;-57
2024/02/12 01:45:13;;;;;;;4.43;2.80;;;7.90;99.90;;;;;;5031033;28;20059;-60
2024/02/12 01:47:43;;;;;;;7.13;3.63;;;7.90;99.90;;;;;;5030717;28;20032;-58
2024/02/12 01:50:12;;;;;;;5.70;2.80;;;7.90;99.90;;;;;;5030550;28;20036;-58
2024/02/12 01:52:40;;;;;;;7.00;3.13;;;7.90;99.90;;;;;;5030409;28;20021;-58
2024/02/12 01:55:08;;;;;;;7.18;2.97;;;7.90;99.90;;;;;;5030925;28;20037;-59
2024/02/12 01:57:34;;;;;;;8.48;3.50;;;7.90;99.90;;;;;;5029608;28;20057;-59
2024/02/12 02:00:00;;;;;;;10.43;2.85;;;7.90;99.90;;;;;;5010909;28;20076;-58
2024/02/12 02:02:26;;;;;;;8.68;2.83;;;7.90;99.90;;;;;;5011015;28;20026;-59
2024/02/12 02:04:53;;;;;;;7.85;3.22;;;7.90;99.90;;;;;;5010490;28;20084;-59
2024/02/12 02:07:19;;;;;;;10.68;3.35;;;7.90;99.90;;;;;;5018788;28;20087;-59
2024/02/12 02:09:50;;;;;;;6.65;2.90;;;7.90;99.90;;;;;;5030472;28;20021;-60
2024/02/12 02:12:16;;;;;;;6.07;3.22;;;7.90;99.90;;;;;;5030843;28;20124;-59
2024/02/12 02:14:44;;;;;;;11.43;4.05;;;7.90;99.90;;;;;;5030405;28;20037;-59
2024/02/12 02:17:10;;;;;;;9.90;3.97;;;7.90;99.90;;;;;;5030734;28;20502;-59
2024/02/12 02:19:38;;;;;;;10.73;4.10;;;7.90;99.90;;;;;;5030871;28;20128;-59
2024/02/12 02:22:04;;;;;;;6.72;3.38;;;7.90;99.90;;;;;;5020249;28;20488;-59
2024/02/12 02:24:30;;;;;;;8.10;3.80;;;7.90;99.90;;;;;;5010977;28;20061;-58
2024/02/12 02:26:55;;;;;;;5.65;3.42;;;7.90;99.90;;;;;;5011114;28;20104;-59
2024/02/12 02:29:21;;;;;;;6.88;3.47;;;7.90;99.90;;;;;;5011036;28;20422;-59
2024/02/12 02:31:47;;;;;;;9.90;5.20;;;7.90;99.90;;;;;;5010939;28;20037;-59
2024/02/12 02:34:13;;;;;;;8.70;4.20;;;7.90;99.90;;;;;;5010769;28;20384;-59
2024/02/12 02:36:39;;;;;;;16.15;3.80;;;7.90;99.90;;;;;;5011017;28;20026;-57
2024/02/12 02:39:04;;;;;;;11.95;4.45;;;7.90;99.90;;;;;;5018399;28;20485;-60
2024/02/12 02:41:31;;;;;;;10.73;4.55;;;7.90;99.90;;;;;;5005082;28;20033;-59
2024/02/12 02:43:56;;;;;;;10.35;5.07;;;7.90;99.90;;;;;;5028365;28;20022;-59
2024/02/12 02:46:28;;;;;;;13.40;5.10;;;7.80;99.90;;;;;;5016759;28;20036;-59
2024/02/12 02:48:55;;;;;;;11.93;5.78;;;7.80;99.90;;;;;;5029929;28;20033;-59
2024/02/12 02:51:26;;;;;;;10.80;5.80;;;7.80;99.90;;;;;;5016350;28;20030;-59
2024/02/12 02:53:52;;;;;;;11.52;6.05;;;7.80;99.90;;;;;;5011152;28;20484;-59
2024/02/12 02:56:18;;;;;;;18.10;7.57;;;7.80;99.90;;;;;;5010694;28;20026;-60
2024/02/12 02:58:43;;;;;;;14.82;6.75;;;7.80;99.90;;;;;;5023024;28;20026;-59
2024/02/12 03:01:11;;;;;;;13.63;6.85;;;7.80;99.90;;;;;;5030668;28;20434;-59
2024/02/12 03:03:37;;;;;;;16.33;7.97;;;7.80;99.90;;;;;;5017560;28;20034;-59
2024/02/12 03:06:05;;;;;;;12.48;6.82;;;7.80;99.90;;;;;;5016371;28;20044;-59
2024/02/12 03:08:34;;;;;;;14.32;7.22;;;7.80;99.90;;;;;;5017574;28;20026;-59
2024/02/12 03:11:01;;;;;;;15.50;7.80;;;7.80;99.90;;;;;;5010787;28;20033;-60
2024/02/12 03:13:27;;;;;;;19.30;8.30;;;7.80;99.90;;;;;;5020299;28;20029;-58
2024/02/12 03:15:53;;;;;;;12.90;7.20;;;7.70;99.90;;;;;;5026563;28;20037;-59
2024/02/12 03:18:20;;;;;;;17.95;7.95;;;7.80;99.90;;;;;;5021878;28;20026;-59
2024/02/12 03:20:46;;;;;;;14.60;9.27;;;7.70;99.90;;;;;;5033314;28;20057;-58
2024/02/12 03:23:13;;;;;;;12.32;7.18;;;7.70;99.90;;;;;;5022214;28;20026;-59
2024/02/12 03:25:39;;;;;;;13.95;7.07;;;7.70;99.90;;;;;;5030668;28;20040;-58
2024/02/12 03:28:05;;;;;;;11.82;7.22;;;7.70;99.90;;;;;;5013957;28;20034;-59
2024/02/12 03:30:31;;;;;;;19.00;8.27;;;7.70;99.90;;;;;;5021909;28;20033;-59
2024/02/12 03:32:59;;;;;;;19.88;9.48;;;7.70;99.90;;;;;;5015896;28;20105;-59
2024/02/12 03:35:25;;;;;;;19.00;10.38;;;7.70;99.90;;;;;;5033325;28;20108;-59
2024/02/12 03:37:50;;;;;;;21.80;9.18;;;7.70;99.90;;;;;;5021933;28;20124;-58
2024/02/12 03:40:17;;;;;;;18.30;9.40;;;7.70;99.90;;;;;;5021970;28;20610;-59
2024/02/12 03:42:43;;;;;;;18.20;9.85;;;7.70;99.90;;;;;;5002199;28;20076;-59
2024/02/12 03:45:13;;;;;;;22.77;10.45;;;7.70;99.90;;;;;;5033505;28;20479;-58
2024/02/12 03:47:39;;;;;;;18.42;10.15;;;7.70;99.90;;;;;;5021457;28;20046;-59
2024/02/12 04:01:10;;;;;;;25.70;11.60;;;7.70;99.90;;;;;;5015094;28;20021;-59
2024/02/12 04:03:36;;;;;;;23.60;11.55;;;7.70;99.90;;;;;;5018579;28;20064;-59
2024/02/12 04:06:06;;;;;;;26.88;13.02;;;7.70;99.90;;;;;;5014847;28;20057;-59
2024/02/12 04:08:32;;;;;;;24.48;12.52;;;7.70;99.90;;;;;;5024274;28;20432;-59
2024/02/12 04:10:58;;;;;;;24.73;13.63;;;7.70;99.90;;;;;;5032844;28;20033;-58
2024/02/12 04:13:26;;;;;;;26.90;12.70;;;7.70;99.90;;;;;;5026125;28;20164;-59
2024/02/12 04:15:54;;;;;;;31.02;14.00;;;7.70;99.90;;;;;;5023948;28;20044;-59
2024/02/12 04:18:20;;;;;;;21.95;12.85;;;7.70;99.90;;;;;;5013417;28;20030;-59
2024/02/12 04:20:49;;;;;;;19.75;12.10;;;7.70;99.90;;;;;;5013059;28;20029;-59
2024/02/12 04:23:15;;;;;;;28.85;13.18;;;7.70;99.90;;;;;;5025320;28;20061;-59
2024/02/12 04:25:41;;;;;;;26.20;13.35;;;7.70;99.90;;;;;;5032938;28;20068;-58
2024/02/12 04:28:09;;;;;;;23.75;12.90;;;7.70;99.90;;;;;;5031041;28;20480;-58
2024/02/12 04:30:35;;;;;;;23.25;11.98;;;7.70;99.90;;;;;;5032548;28;20025;-59
2024/02/12 04:33:01;;;;;;;29.10;13.32;;;7.70;99.90;;;;;;5025328;28;20056;-58
2024/02/12 04:35:27;;;;;;;31.08;13.80;;;7.70;99.90;;;;;;5032153;28;20114;-58
2024/02/12 04:37:54;;;;;;;28.55;12.73;;;7.70;99.90;;;;;;5032222;28;20068;-59
2024/02/12 04:40:22;;;;;;;33.75;14.07;;;7.70;99.90;;;;;;5032813;28;20059;-59
2024/02/12 04:42:48;;;;;;;34.25;14.05;;;7.70;99.90;;;;;;5006782;28;20034;-60
2024/02/12 04:45:14;;;;;;;33.05;14.80;;;7.70;99.90;;;;;;5030266;28;20045;-59
2024/02/12 04:47:40;;;;;;;28.98;14.98;;;7.70;99.90;;;;;;5012345;28;20033;-59
2024/02/12 04:50:07;;;;;;;29.23;13.68;;;7.70;99.90;;;;;;5012419;28;20037;-59
2024/02/12 04:52:33;;;;;;;37.47;15.65;;;7.70;99.90;;;;;;5012339;28;20029;-58
2024/02/12 04:54:59;;;;;;;35.95;16.33;;;7.70;99.90;;;;;;5016033;28;20470;-59
2024/02/12 04:57:24;;;;;;;36.08;14.52;;;7.70;99.90;;;;;;5032477;28;20053;-59
2024/02/12 04:59:52;;;;;;;31.65;15.40;;;7.70;99.90;;;;;;5026564;28;20456;-59
2024/02/12 05:02:18;;;;;;;34.90;16.20;;;7.80;99.90;;;;;;5012194;28;20076;-59
2024/02/12 05:04:44;;;;;;;37.88;16.45;;;7.70;99.90;;;;;;5021558;28;20029;-60
2024/02/12 05:07:11;;;;;;;30.08;14.70;;;7.70;99.90;;;;;;5031735;28;20064;-59
2024/02/12 05:09:36;;;;;;;35.70;16.75;;;7.70;99.90;;;;;;5031990;28;20414;-59
2024/02/12 05:12:02;;;;;;;31.23;15.27;;;7.70;99.90;;;;;;5031680;28;20029;-59
2024/02/12 05:14:28;;;;;;;40.47;15.95;;;7.70;99.90;;;;;;5031671;28;20124;-59
2024/02/12 05:16:59;;;;;;;37.65;16.25;;;7.70;99.90;;;;;;5029213;28;20440;-59
2024/02/12 05:24:54;;;;;;;32.03;16.33;;;7.70;99.90;;;;;;5031580;28;20087;-58
2024/02/12 05:27:20;;;;;;;38.13;15.77;;;7.70;99.90;;;;;;5027152;28;20480;-59
2024/02/12 05:29:45;;;;;;;41.25;15.40;;;7.70;99.90;;;;;;5020014;28;20065;-59
2024/02/12 05:32:11;;;;;;;43.20;16.02;;;7.70;99.90;;;;;;5026251;28;20037;-59
2024/02/12 05:34:37;;;;;;;38.15;17.50;;;7.70;99.90;;;;;;5011541;28;20034;-59
2024/02/12 05:37:03;;;;;;;33.88;16.38;;;7.70;99.90;;;;;;5023920;28;20368;-59
2024/02/12 05:39:33;;;;;;;34.97;17.30;;;7.70;99.90;;;;;;5029508;28;20376;-59
2024/02/12 05:41:59;;;;;;;30.98;16.42;;;7.70;99.90;;;;;;5029017;28;20472;-58
2024/02/12 05:44:25;;;;;;;32.28;16.30;;;7.60;99.90;;;;;;4999483;28;20137;-59
2024/02/12 05:46:50;;;;;;;36.05;17.50;;;7.60;99.90;;;;;;5022102;28;20025;-59
2024/02/12 05:49:22;;;;;;;37.80;17.65;;;7.60;99.90;;;;;;5031241;28;20036;-60
2024/02/12 05:51:48;;;;;;;32.55;16.38;;;7.60;99.90;;;;;;5031171;28;20117;-58
2024/02/12 05:54:14;;;;;;;36.00;16.67;;;7.60;99.90;;;;;;5030837;28;20491;-58
2024/02/12 05:56:39;;;;;;;28.10;16.00;;;7.60;99.90;;;;;;5030827;28;20037;-59
2024/02/12 05:59:07;;;;;;;38.90;18.65;;;7.60;99.90;;;;;;5030865;28;20111;-59
2024/02/12 06:01:33;;;;;;;34.67;16.55;;;7.50;99.90;;;;;;5031106;28;20597;-58
2024/02/12 06:03:59;;;;;;;38.33;17.23;;;7.50;99.90;;;;;;5031012;28;20013;-59
2024/02/12 06:06:25;;;;;;;38.33;16.92;;;7.50;99.90;;;;;;5031308;28;20040;-58
2024/02/12 06:08:51;;;;;;;35.08;17.40;;;7.50;99.90;;;;;;5030977;28;20063;-58
2024/02/12 06:11:17;;;;;;;36.47;17.00;;;7.50;99.90;;;;;;5021490;28;20064;-59
2024/02/12 06:13:42;;;;;;;46.95;17.90;;;7.50;99.90;;;;;;5021084;28;20060;-58
2024/02/12 06:16:08;;;;;;;31.58;15.30;;;7.50;99.90;;;;;;5031058;28;20029;-56
2024/02/12 06:18:33;;;;;;;33.45;14.63;;;7.50;99.90;;;;;;5018430;28;20026;-59
2024/02/12 06:20:59;;;;;;;43.83;18.42;;;7.50;99.90;;;;;;5011229;28;20389;-59
2024/02/12 06:23:25;;;;;;;34.00;16.33;;;7.50;99.90;;;;;;5028536;28;20071;-58
2024/02/12 06:25:50;;;;;;;34.08;16.35;;;7.50;99.90;;;;;;5016796;28;20411;-58
2024/02/12 06:28:16;;;;;;;32.85;16.45;;;7.50;99.90;;;;;;5021852;28;20033;-56
2024/02/12 06:30:42;;;;;;;27.33;15.73;;;7.40;99.90;;;;;;5022989;28;20021;-59
2024/02/12 06:33:07;;;;;;;34.30;16.05;;;7.40;99.90;;;;;;5016621;28;20444;-58
2024/02/12 06:35:34;;;;;;;28.95;15.75;;;7.40;99.90;;;;;;5019804;28;20032;-57
2024/02/12 06:38:03;;;;;;;34.22;15.85;;;7.40;99.90;;;;;;5020358;28;20395;-59
2024/02/12 06:40:29;;;;;;;34.00;17.17;;;7.40;99.90;;;;;;5022164;28;20026;-58
2024/02/12 06:42:55;;;;;;;38.42;17.45;;;7.40;99.90;;;;;;5020692;28;20026;-58
2024/02/12 06:45:20;;;;;;;29.75;16.10;;;7.40;99.90;;;;;;5022931;28;20377;-59
2024/02/12 06:47:46;;;;;;;37.90;15.88;;;7.40;99.90;;;;;;5021850;28;20025;-60
2024/02/12 06:50:12;;;;;;;32.17;15.85;;;7.40;99.90;;;;;;5021132;28;20067;-59
2024/02/12 06:52:39;;;;;;;30.98;15.63;;;7.40;99.90;;;;;;5026702;28;20033;-59
2024/02/12 06:55:10;;;;;;;32.90;16.15;;;7.40;99.90;;;;;;5024560;28;20071;-59
2024/02/12 06:57:38;;;;;;;33.65;16.23;;;7.40;99.90;;;;;;5025268;28;20026;-59
2024/02/12 07:00:05;;;;;;;32.25;16.27;;;7.40;99.90;;;;;;5025325;28;20471;-61
2024/02/12 07:02:33;;;;;;;32.80;15.10;;;7.40;99.90;;;;;;5023350;28;20097;-59
2024/02/12 07:04:59;;;;;;;31.73;16.85;;;7.40;99.90;;;;;;5019010;28;20399;-59
2024/02/12 07:07:25;;;;;;;34.95;15.90;;;7.40;99.90;;;;;;5027521;28;20025;-59
2024/02/12 07:09:50;;;;;;;43.70;16.13;;;7.40;99.90;;;;;;5018483;28;20100;-59
2024/02/12 07:12:16;;;;;;;31.30;15.27;;;7.40;99.90;;;;;;5026735;28;20086;-59
2024/02/12 07:14:42;;;;;;;38.13;16.90;;;7.50;99.90;;;;;;5028630;28;20076;-59
2024/02/12 07:17:09;;;;;;;34.78;15.15;;;7.40;99.90;;;;;;5023033;28;20059;-58
2024/02/12 07:19:35;;;;;;;39.47;15.77;;;7.40;99.90;;;;;;5024733;28;20550;-59
2024/02/12 07:22:01;;;;;;;32.72;15.55;;;7.40;99.90;;;;;;5020831;28;20013;-58
2024/02/12 07:24:27;;;;;;;34.70;16.13;;;7.40;99.90;;;;;;5019306;28;20488;-62
2024/02/12 07:26:52;;;;;;;32.78;16.40;;;7.40;99.90;;;;;;5019026;28;20035;-62
2024/02/12 07:29:18;;;;;;;37.00;16.77;;;7.40;99.90;;;;;;5014535;28;20033;-62
2024/02/12 07:31:43;;;;;;;33.88;18.00;;;7.50;99.90;;;;;;5018419;28;20037;-62
2024/02/12 07:34:09;;;;;;;38.10;17.98;;;7.50;99.90;;;;;;5016080;28;20399;-60
2024/02/12 07:36:41;;;;;;;30.77;16.02;;;7.60;99.90;;;;;;5016450;28;20084;-61
2024/02/12 07:39:09;;;;;;;54.55;24.02;;;7.60;99.90;;;;;;5014741;28;20038;-62
2024/02/12 07:41:42;;;;;;;43.80;20.00;;;7.60;99.90;;;;;;5016041;28;20044;-62
2024/02/12 07:44:10;;;;;;;33.60;18.45;;;7.60;99.90;;;;;;5016630;28;20038;-61
2024/02/12 07:46:38;;;;;;;34.75;16.30;;;7.60;99.90;;;;;;5020059;28;20703;-62
2024/02/12 07:49:05;;;;;;;31.80;14.80;;;7.60;99.90;;;;;;5018692;28;20037;-61
2024/02/12 07:51:31;;;;;;;29.50;15.05;;;7.50;99.90;;;;;;5019237;28;20041;-62
2024/02/12 07:53:57;;;;;;;32.85;14.60;;;7.50;99.90;;;;;;5017194;28;20037;-62
2024/02/12 07:56:23;;;;;;;45.90;16.95;;;7.50;99.90;;;;;;5017381;28;20033;-62
2024/02/12 07:58:50;;;;;;;44.75;17.92;;;7.50;99.90;;;;;;5019561;28;20022;-62
2024/02/12 08:01:16;;;;;;;33.97;14.85;;;7.60;99.90;;;;;;5020733;28;20029;-62
2024/02/12 08:03:42;;;;;;;37.33;16.65;;;7.60;99.90;;;;;;5019123;28;20695;-61
2024/02/12 08:06:09;;;;;;;38.97;17.20;;;7.70;99.90;;;;;;5017606;28;20032;-61
2024/02/12 08:08:35;;;;;;;51.40;23.00;;;7.70;99.90;;;;;;5019185;28;20442;-61
2024/02/12 08:11:00;;;;;;;55.78;24.02;;;7.80;99.90;;;;;;5017863;28;20025;-60
2024/02/12 08:13:26;;;;;;;59.10;24.25;;;7.80;99.90;;;;;;5018422;28;20037;-62
2024/02/12 08:15:51;;;;;;;41.55;16.20;;;7.80;99.90;;;;;;5016764;28;20075;-61
2024/02/12 08:18:19;;;;;;;34.70;16.50;;;7.90;99.90;;;;;;5019451;28;20142;-61
2024/02/12 08:20:45;;;;;;;37.70;17.90;;;7.90;99.90;;;;;;5016748;28;20113;-62
2024/02/12 08:23:10;;;;;;;69.95;29.15;;;7.90;99.90;;;;;;5019038;28;20757;-62
2024/02/12 08:25:38;;;;;;;51.70;23.60;;;7.90;99.90;;;;;;5017533;28;20057;-62
2024/02/12 08:28:04;;;;;;;48.42;20.02;;;7.80;99.90;;;;;;5017825;28;20030;-62
2024/02/12 08:30:31;;;;;;;66.90;26.70;;;7.80;99.90;;;;;;5015709;28;20041;-62
2024/02/12 08:32:59;;;;;;;68.55;27.33;;;7.80;99.90;;;;;;5018774;28;20041;-61
2024/02/12 08:35:24;;;;;;;41.15;20.30;;;7.80;99.90;;;;;;5017691;28;20034;-61
2024/02/12 08:37:50;;;;;;;41.65;18.35;;;7.80;99.90;;;;;;5018304;28;20036;-62
2024/02/12 08:40:17;;;;;;;46.60;19.77;;;7.80;99.90;;;;;;5017113;28;20034;-62
2024/02/12 08:42:45;;;;;;;44.38;21.02;;;7.80;99.90;;;;;;5016332;28;20032;-61
2024/02/12 08:45:12;;;;;;;42.78;20.40;;;7.80;99.90;;;;;;5019656;28;20022;-62
2024/02/12 08:47:39;;;;;;;51.88;23.15;;;7.70;99.90;;;;;;5024599;28;20547;-61
2024/02/12 08:50:06;;;;;;;36.70;20.63;;;7.70;99.90;;;;;;5015551;28;20025;-62
2024/02/12 08:52:31;;;;;;;30.50;16.13;;;7.70;99.90;;;;;;5014676;28;20561;-61
2024/02/12 08:54:59;;;;;;;32.60;15.68;;;7.70;99.90;;;;;;5018470;28;20030;-61
2024/02/12 08:57:26;;;;;;;37.03;15.82;;;7.70;99.90;;;;;;5016119;28;20516;-61
2024/02/12 08:59:52;;;;;;;49.22;20.15;;;7.70;99.90;;;;;;5014486;28;20106;-62
2024/02/12 09:02:18;;;;;;;42.60;20.35;;;7.70;99.90;;;;;;5014874;28;20030;-62
2024/02/12 09:04:44;;;;;;;44.75;18.75;;;7.80;99.90;;;;;;5016176;28;20037;-62
2024/02/12 09:07:11;;;;;;;45.97;18.15;;;7.80;99.90;;;;;;5015759;28;20041;-62
2024/02/12 09:09:37;;;;;;;55.45;25.65;;;7.80;99.90;;;;;;5016673;28;20080;-61
2024/02/12 09:12:03;;;;;;;54.38;22.35;;;7.80;99.90;;;;;;5015378;28;20057;-62
2024/02/12 09:14:28;;;;;;;83.43;33.13;;;7.80;99.90;;;;;;5016135;28;20033;-62
2024/02/12 09:16:54;;;;;;;102.40;44.70;;;7.80;99.90;;;;;;5013882;28;20029;-61
2024/02/12 09:19:20;;;;;;;87.05;37.40;;;7.90;99.90;;;;;;5017660;28;20044;-62
2024/02/12 09:21:46;;;;;;;58.13;26.75;;;8.00;99.90;;;;;;5014256;28;20409;-62
2024/02/12 09:24:13;;;;;;;52.92;25.00;;;8.00;99.90;;;;;;5014720;28;20109;-62
2024/02/12 09:26:40;;;;;;;47.78;25.02;;;8.10;99.90;;;;;;5016757;28;20508;-62
2024/02/12 09:29:06;;;;;;;37.03;19.75;;;8.10;99.90;;;;;;5011261;28;20026;-61
2024/02/12 09:31:33;;;;;;;30.88;16.20;;;8.10;99.90;;;;;;5017358;28;20041;-61
2024/02/12 09:34:01;;;;;;;32.95;14.40;;;8.10;99.90;;;;;;5016561;28;20060;-61
2024/02/12 09:36:28;;;;;;;35.90;15.05;;;8.10;99.90;;;;;;5012488;28;20483;-62
2024/02/12 09:38:53;;;;;;;35.10;14.95;;;8.10;99.90;;;;;;5013025;28;20037;-61
2024/02/12 09:41:28;;;;;;;26.05;12.95;;;8.10;99.90;;;;;;5016966;28;20403;-61
2024/02/12 09:43:55;;;;;;;31.25;12.43;;;8.10;99.90;;;;;;5017873;28;20026;-61
2024/02/12 09:46:21;;;;;;;29.45;12.68;;;8.20;99.90;;;;;;5016772;28;20037;-61
2024/02/12 09:48:48;;;;;;;34.08;12.77;;;8.40;99.90;;;;;;5015775;28;20130;-62
2024/02/12 09:51:15;;;;;;;25.25;12.93;;;8.50;99.90;;;;;;5015373;28;20132;-62
2024/02/12 09:53:43;;;;;;;40.55;16.75;;;8.70;99.90;;;;;;5013512;28;20033;-62
2024/02/12 09:56:11;;;;;;;44.47;18.40;;;8.80;99.90;;;;;;5009063;28;20037;-61
2024/02/12 09:58:37;;;;;;;56.03;24.20;;;8.80;99.90;;;;;;5014879;28;20513;-62
2024/02/12 10:01:10;;;;;;;50.13;20.33;;;8.90;99.90;;;;;;5014506;28;20041;-61
2024/02/12 10:03:36;;;;;;;31.23;14.35;;;8.90;99.90;;;;;;5015741;28;20026;-62
2024/02/12 10:06:01;;;;;;;39.30;18.38;;;8.90;99.90;;;;;;5015355;28;20554;-61
2024/02/12 10:08:27;;;;;;;27.17;12.52;;;9.00;99.90;;;;;;5016408;28;20040;-62
2024/02/12 10:10:54;;;;;;;25.38;11.90;;;8.90;99.90;;;;;;5016231;28;20033;-62
2024/02/12 10:13:21;;;;;;;28.00;11.57;;;8.80;99.90;;;;;;5016091;28;20033;-62
2024/02/12 10:15:49;;;;;;;22.95;10.00;;;8.90;99.90;;;;;;5015784;28;20037;-61
2024/02/12 10:18:19;;;;;;;30.52;10.45;;;8.80;99.90;;;;;;5012796;28;20080;-61
2024/02/12 10:20:45;;;;;;;29.15;12.40;;;8.80;99.90;;;;;;5016214;28;20111;-61
2024/02/12 10:23:15;;;;;;;20.92;8.75;;;8.80;99.90;;;;;;5015258;28;20130;-61
2024/02/12 10:25:47;;;;;;;22.30;9.23;;;8.70;99.90;;;;;;5017911;28;20641;-62
2024/02/12 10:28:16;;;;;;;33.58;11.10;;;8.90;99.90;;;;;;5019628;28;20041;-61
2024/02/12 10:30:42;;;;;;;15.95;7.18;;;9.00;99.90;;;;;;5018659;28;20083;-61
2024/02/12 10:33:10;;;;;;;21.95;8.20;;;9.10;99.90;;;;;;5020060;28;20033;-60
2024/02/12 10:35:41;;;;;;;13.07;6.13;;;9.30;99.90;;;;;;5017676;28;20148;-63
2024/02/12 10:38:07;;;;;;;22.60;8.50;;;9.40;99.90;;;;;;5019399;28;20030;-61
2024/02/12 10:40:46;;;;;;;18.55;7.20;;;9.40;99.90;;;;;;5021586;28;20450;-60
2024/02/12 10:43:16;;;;;;;19.88;7.65;;;9.40;99.90;;;;;;5022456;28;20029;-61
2024/02/12 10:45:47;;;;;;;18.73;7.63;;;9.50;99.90;;;;;;5018973;28;20025;-61
2024/02/12 10:48:16;;;;;;;19.98;7.47;;;9.50;99.90;;;;;;5020170;28;20033;-61
2024/02/12 10:50:45;;;;;;;15.30;6.90;;;9.70;99.90;;;;;;5019359;28;21586;-62
2024/02/12 10:53:12;;;;;;;22.77;8.13;;;9.90;99.90;;;;;;5019788;28;20039;-61
2024/02/12 10:55:38;;;;;;;17.02;6.38;;;10.10;99.90;;;;;;5016928;28;20440;-61
2024/02/12 10:58:04;;;;;;;24.80;8.05;;;10.20;99.90;;;;;;5017914;28;20064;-61
2024/02/12 11:00:31;;;;;;;14.35;6.85;;;10.10;99.90;;;;;;5021067;28;20026;-62
2024/02/12 11:02:58;;;;;;;24.67;9.85;;;10.30;99.90;;;;;;5016762;28;20037;-62
2024/02/12 11:05:24;;;;;;;15.10;6.10;;;10.50;99.90;;;;;;5020002;28;20026;-61
2024/02/12 11:08:08;;;;;;;17.08;6.97;;;10.70;99.90;;;;;;5019824;28;20097;-62
2024/02/12 11:10:35;;;;;;;9.20;4.28;;;10.70;99.90;;;;;;5016619;28;20041;-61
2024/02/12 11:13:05;;;;;;;14.80;6.03;;;10.60;99.90;;;;;;5017474;28;20037;-63
2024/02/12 11:15:31;;;;;;;9.65;4.60;;;10.60;99.90;;;;;;5018356;28;20049;-62
2024/02/12 11:17:57;;;;;;;10.52;6.15;;;10.50;99.90;;;;;;5018402;28;20065;-61
2024/02/12 11:20:25;;;;;;;12.52;5.07;;;10.40;99.90;;;;;;5017405;28;20063;-62
2024/02/12 11:22:52;;;;;;;15.75;5.43;;;10.40;99.90;;;;;;5019639;28;20029;-61
2024/02/12 11:25:19;;;;;;;12.88;5.47;;;10.30;99.90;;;;;;5019542;28;20463;-62
2024/02/12 11:27:50;;;;;;;8.13;4.40;;;10.10;99.90;;;;;;5019554;28;20136;-61
2024/02/12 11:30:16;;;;;;;9.40;4.15;;;10.20;99.90;;;;;;5016570;28;20040;-62
2024/02/12 11:32:44;;;;;;;8.75;4.00;;;10.00;99.90;;;;;;5022207;28;20037;-62
2024/02/12 11:35:12;;;;;;;10.55;3.78;;;10.10;99.90;;;;;;5017305;28;20029;-62
2024/02/12 11:38:02;;;;;;;12.38;4.07;;;10.00;99.90;;;;;;5010302;28;20033;-62
2024/02/12 11:40:27;;;;;;;9.95;4.45;;;10.10;99.90;;;;;;5016121;28;20037;-62
2024/02/12 11:42:53;;;;;;;11.60;4.00;;;10.20;99.90;;;;;;5022055;28;20515;-62
2024/02/12 11:45:22;;;;;;;9.80;4.35;;;10.20;99.90;;;;;;5017039;28;20030;-62
2024/02/12 11:47:49;;;;;;;11.68;5.25;;;10.40;99.90;;;;;;5017710;28;20045;-61
2024/02/12 11:50:24;;;;;;;9.55;4.70;;;10.40;99.90;;;;;;5018756;28;20061;-61
2024/02/12 11:52:50;;;;;;;10.52;4.18;;;10.50;99.90;;;;;;5019884;28;20041;-62
2024/02/12 11:55:16;;;;;;;8.95;3.20;;;10.50;99.90;;;;;;5019769;28;20507;-62
2024/02/12 11:57:43;;;;;;;5.78;2.50;;;10.40;99.90;;;;;;5018268;28;20040;-61
2024/02/12 12:00:16;;;;;;;13.15;3.13;;;10.40;99.90;;;;;;5018324;28;20034;-62
2024/02/12 12:02:52;;;;;;;16.70;4.38;;;10.30;99.90;;;;;;5016149;28;20574;-61
2024/02/12 12:05:25;;;;;;;11.60;2.92;;;10.20;99.90;;;;;;5017584;28;20068;-61
2024/02/12 12:07:52;;;;;;;9.23;3.17;;;10.10;99.90;;;;;;5018654;28;20056;-61
2024/02/12 12:10:26;;;;;;;8.05;2.78;;;10.20;99.90;;;;;;5018805;28;20449;-61
2024/02/12 12:12:51;;;;;;;7.78;2.60;;;10.20;99.90;;;;;;5016595;28;20512;-61
2024/02/12 12:15:18;;;;;;;7.40;2.17;;;10.30;99.90;;;;;;5018461;28;20048;-61
2024/02/12 12:17:44;;;;;;;6.22;2.70;;;10.30;99.90;;;;;;5017954;28;20116;-61
2024/02/12 12:20:15;;;;;;;7.25;2.08;;;10.40;99.90;;;;;;5014362;28;20022;-61
2024/02/12 12:22:45;;;;;;;4.18;2.35;;;10.40;99.90;;;;;;5018833;28;20033;-61
2024/02/12 12:25:12;;;;;;;8.35;2.33;;;10.40;99.90;;;;;;5016779;28;20039;-60
2024/02/12 12:27:39;;;;;;;11.70;2.00;;;10.40;99.90;;;;;;5015576;28;20388;-60
2024/02/12 12:30:14;;;;;;;12.20;2.55;;;10.60;99.90;;;;;;5017126;28;20080;-60
2024/02/12 12:32:41;;;;;;;3.22;1.77;;;10.90;99.90;;;;;;5019171;28;20037;-62
2024/02/12 12:35:07;;;;;;;8.63;2.75;;;11.00;99.90;;;;;;5016398;28;20403;-62
2024/02/12 12:37:38;;;;;;;5.20;1.65;;;11.10;99.90;;;;;;5017907;28;20041;-60
2024/02/12 12:40:20;;;;;;;13.70;3.13;;;11.10;99.90;;;;;;5015517;28;20034;-60
2024/02/12 12:42:49;;;;;;;4.88;1.65;;;11.20;99.90;;;;;;5016837;28;20059;-61
2024/02/12 12:45:17;;;;;;;9.05;2.20;;;11.30;99.90;;;;;;5017678;28;20048;-61
2024/02/12 12:47:43;;;;;;;5.22;1.63;;;11.40;99.90;;;;;;5018492;28;20041;-62
2024/02/12 12:50:10;;;;;;;8.65;1.95;;;11.20;99.90;;;;;;5018520;28;20071;-61
2024/02/12 12:52:36;;;;;;;2.53;1.30;;;11.30;99.90;;;;;;5016895;28;20029;-62
2024/02/12 12:55:09;;;;;;;6.72;1.38;;;11.40;99.90;;;;;;5017435;28;20120;-62
2024/02/12 12:57:35;;;;;;;4.73;2.03;;;11.50;99.90;;;;;;5014791;28;20033;-61
2024/02/12 13:00:06;;;;;;;8.43;2.13;;;11.30;99.90;;;;;;5015215;28;20071;-61